sensor_id;sensor_type;location;lat;lon;timestamp;pressure;altitude;pressure_sealevel;temperature;humidity
3832;BME280;12460;42.662;23.288;2023-08-08T00:14:07;94408.59;;;20.38;57.33
3832;BME280;12460;42.662;23.288;2023-08-08T00:29:09;94418.47;;;20.22;56.45
3832;BME280;12460;42.662;23.288;2023-08-08T00:44:11;94434.78;;;20.05;56.06
3832;BME280;12460;42.662;23.288;2023-08-08T00:59:13;94438.22;;;19.88;55.75
3832;BME280;12460;42.662;23.288;2023-08-08T01:14:17;94452.06;;;19.80;55.91
3832;BME280;12460;42.662;23.288;2023-08-08T01:29:20;94461.19;;;19.63;56.16
3832;BME280;12460;42.662;23.288;2023-08-08T01:44:32;94480.19;;;19.45;56.55
3832;BME280;12460;42.662;23.288;2023-08-08T01:59:36;94514.16;;;19.27;56.74
3832;BME280;12460;42.662;23.288;2023-08-08T02:14:38;94516.72;;;19.35;56.18
3832;BME280;12460;42.662;23.288;2023-08-08T02:29:40;94544.88;;;19.29;56.88
3832;BME280;12460;42.662;23.288;2023-08-08T02:44:42;94553.97;;;19.25;56.78
3832;BME280;12460;42.662;23.288;2023-08-08T02:59:44;94578.22;;;19.13;56.48
3832;BME280;12460;42.662;23.288;2023-08-08T03:14:46;94572.19;;;19.07;56.54
3832;BME280;12460;42.662;23.288;2023-08-08T03:29:48;94575.91;;;19.09;57.07
3832;BME280;12460;42.662;23.288;2023-08-08T03:44:51;94587.56;;;19.02;56.93
3832;BME280;12460;42.662;23.288;2023-08-08T03:59:53;94564.53;;;19.23;56.20
3832;BME280;12460;42.662;23.288;2023-08-08T04:14:55;94602.75;;;19.43;55.31
3832;BME280;12460;42.662;23.288;2023-08-08T04:29:57;94607.31;;;19.48;55.04
3832;BME280;12460;42.662;23.288;2023-08-08T04:44:59;94598.28;;;19.79;53.84
3832;BME280;12460;42.662;23.288;2023-08-08T05:00:02;94633.53;;;20.38;52.65
3832;BME280;12460;42.662;23.288;2023-08-08T05:15:07;94677.00;;;22.23;48.24
3832;BME280;12460;42.662;23.288;2023-08-08T05:30:09;94671.44;;;24.31;42.63
3832;BME280;12460;42.662;23.288;2023-08-08T05:45:12;94693.50;;;28.48;36.30
3832;BME280;12460;42.662;23.288;2023-08-08T06:00:15;94730.75;;;26.72;37.60
3832;BME280;12460;42.662;23.288;2023-08-08T06:15:17;94731.50;;;24.60;41.37
3832;BME280;12460;42.662;23.288;2023-08-08T06:30:19;94725.47;;;27.65;35.81
3832;BME280;12460;42.662;23.288;2023-08-08T06:45:21;94713.25;;;30.05;31.39
3832;BME280;12460;42.662;23.288;2023-08-08T07:00:23;94717.88;;;29.38;30.31
3832;BME280;12460;42.662;23.288;2023-08-08T07:15:25;94720.50;;;30.99;28.57
3832;BME280;12460;42.662;23.288;2023-08-08T07:30:28;94709.09;;;31.82;26.04
3832;BME280;12460;42.662;23.288;2023-08-08T07:45:29;94717.22;;;31.95;25.58
3832;BME280;12460;42.662;23.288;2023-08-08T08:00:31;94703.44;;;33.00;24.72
3832;BME280;12460;42.662;23.288;2023-08-08T08:15:33;94713.00;;;33.11;25.54
3832;BME280;12460;42.662;23.288;2023-08-08T08:30:35;94726.91;;;33.24;24.19
3832;BME280;12460;42.662;23.288;2023-08-08T08:45:38;94714.72;;;32.43;25.24
3832;BME280;12460;42.662;23.288;2023-08-08T09:00:44;94721.16;;;33.46;24.26
3832;BME280;12460;42.662;23.288;2023-08-08T09:15:47;94714.41;;;33.05;24.07
3832;BME280;12460;42.662;23.288;2023-08-08T09:30:50;94714.03;;;31.65;25.59
3832;BME280;12460;42.662;23.288;2023-08-08T09:45:55;94733.97;;;32.87;24.62
3832;BME280;12460;42.662;23.288;2023-08-08T10:00:57;94725.63;;;33.78;23.17
3832;BME280;12460;42.662;23.288;2023-08-08T10:16:04;94716.91;;;33.96;22.81
3832;BME280;12460;42.662;23.288;2023-08-08T10:31:18;94712.56;;;34.13;22.19
3832;BME280;12460;42.662;23.288;2023-08-08T10:46:31;94699.44;;;34.52;22.39
3832;BME280;12460;42.662;23.288;2023-08-08T11:01:33;94696.47;;;33.98;23.31
3832;BME280;12460;42.662;23.288;2023-08-08T11:16:36;94686.22;;;33.68;23.33
3832;BME280;12460;42.662;23.288;2023-08-08T11:31:38;94688.81;;;32.90;23.96
3832;BME280;12460;42.662;23.288;2023-08-08T11:46:45;94675.72;;;32.97;24.42
3832;BME280;12460;42.662;23.288;2023-08-08T12:01:49;94671.34;;;32.96;24.17
3832;BME280;12460;42.662;23.288;2023-08-08T12:16:50;94654.31;;;32.44;25.05
3832;BME280;12460;42.662;23.288;2023-08-08T12:31:52;94630.81;;;32.18;25.17
3832;BME280;12460;42.662;23.288;2023-08-08T12:46:54;94624.72;;;31.82;25.55
3832;BME280;12460;42.662;23.288;2023-08-08T13:01:56;94618.88;;;31.80;25.58
3832;BME280;12460;42.662;23.288;2023-08-08T13:16:59;94606.50;;;31.05;26.13
3832;BME280;12460;42.662;23.288;2023-08-08T13:32:00;94599.16;;;30.40;26.79
3832;BME280;12460;42.662;23.288;2023-08-08T13:47:03;94602.38;;;29.64;27.79
3832;BME280;12460;42.662;23.288;2023-08-08T14:02:05;94609.88;;;29.38;28.37
3832;BME280;12460;42.662;23.288;2023-08-08T14:17:08;94609.22;;;28.66;28.99
3832;BME280;12460;42.662;23.288;2023-08-08T14:32:10;94595.09;;;28.48;30.19
3832;BME280;12460;42.662;23.288;2023-08-08T14:47:13;94592.63;;;28.01;30.84
3832;BME280;12460;42.662;23.288;2023-08-08T15:02:15;94597.34;;;27.86;30.31
3832;BME280;12460;42.662;23.288;2023-08-08T15:17:17;94595.69;;;27.77;30.93
3832;BME280;12460;42.662;23.288;2023-08-08T15:32:19;94596.13;;;27.65;31.05
3832;BME280;12460;42.662;23.288;2023-08-08T15:47:21;94613.97;;;27.28;31.44
3832;BME280;12460;42.662;23.288;2023-08-08T16:02:23;94623.94;;;26.20;32.82
3832;BME280;12460;42.662;23.288;2023-08-08T16:17:25;94638.81;;;25.89;33.64
3832;BME280;12460;42.662;23.288;2023-08-08T16:32:28;94661.84;;;25.65;33.98
3832;BME280;12460;42.662;23.288;2023-08-08T16:47:31;94675.88;;;25.34;34.50
3832;BME280;12460;42.662;23.288;2023-08-08T17:02:33;94690.66;;;24.83;35.07
3832;BME280;12460;42.662;23.288;2023-08-08T17:17:35;94700.63;;;24.43;35.82
3832;BME280;12460;42.662;23.288;2023-08-08T17:32:37;94719.34;;;24.06;36.67
3832;BME280;12460;42.662;23.288;2023-08-08T17:47:39;94722.63;;;23.63;37.54
3832;BME280;12460;42.662;23.288;2023-08-08T18:02:42;94749.69;;;23.25;38.60
3832;BME280;12460;42.662;23.288;2023-08-08T18:17:44;94768.94;;;22.89;39.47
3832;BME280;12460;42.662;23.288;2023-08-08T18:32:46;94782.34;;;22.54;40.40
3832;BME280;12460;42.662;23.288;2023-08-08T18:47:48;94794.59;;;22.25;41.85
3832;BME280;12460;42.662;23.288;2023-08-08T19:02:51;94816.50;;;22.18;42.42
3832;BME280;12460;42.662;23.288;2023-08-08T19:17:53;94803.03;;;21.92;43.37
3832;BME280;12460;42.662;23.288;2023-08-08T19:32:57;94812.00;;;21.57;44.48
3832;BME280;12460;42.662;23.288;2023-08-08T19:47:59;94820.84;;;21.20;45.12
3832;BME280;12460;42.662;23.288;2023-08-08T20:03:01;94831.63;;;20.95;45.98
3832;BME280;12460;42.662;23.288;2023-08-08T20:18:03;94828.31;;;20.73;46.18
3832;BME280;12460;42.662;23.288;2023-08-08T20:33:05;94826.09;;;20.58;46.53
3832;BME280;12460;42.662;23.288;2023-08-08T20:48:10;94826.78;;;20.45;46.91
3832;BME280;12460;42.662;23.288;2023-08-08T21:03:12;94821.59;;;20.41;46.92
3832;BME280;12460;42.662;23.288;2023-08-08T21:18:14;94830.03;;;20.26;47.38
3832;BME280;12460;42.662;23.288;2023-08-08T21:33:16;94822.75;;;20.11;47.93
3832;BME280;12460;42.662;23.288;2023-08-08T21:48:18;94812.25;;;20.02;48.29
3832;BME280;12460;42.662;23.288;2023-08-08T22:03:20;94808.91;;;19.94;48.82
3832;BME280;12460;42.662;23.288;2023-08-08T22:18:22;94793.13;;;19.79;48.67
3832;BME280;12460;42.662;23.288;2023-08-08T22:33:25;94797.16;;;19.63;49.51
3832;BME280;12460;42.662;23.288;2023-08-08T22:48:27;94792.69;;;19.60;49.58
3832;BME280;12460;42.662;23.288;2023-08-08T23:03:29;94795.38;;;19.44;50.08
3832;BME280;12460;42.662;23.288;2023-08-08T23:18:31;94795.75;;;19.38;50.11
3832;BME280;12460;42.662;23.288;2023-08-08T23:33:33;94797.47;;;19.32;50.37
3832;BME280;12460;42.662;23.288;2023-08-08T23:48:35;94786.31;;;19.24;50.92
